Time;durP1;ratioP1;P1;durP2;ratioP2;P2;SDS_P1;SDS_P2;PMS_P1;PMS_P2;Temp;Humidity;BMP_temperature;BMP_pressure;BME280_temperature;BME280_humidity;BME280_pressure;Samples;Min_cycle;Max_cycle;Signal;HPM_P1;HPM_P2
2022/08/03 00:02:15;;;;;;;2.65;1.02;;;24.20;53.20;;;;;;5018651;28;20038;-50
2022/08/03 00:04:46;;;;;;;1.25;1.00;;;24.20;53.40;;;;;;5023300;28;20125;-51
2022/08/03 00:07:12;;;;;;;2.67;1.48;;;24.20;53.40;;;;;;5015867;28;20050;-51
2022/08/03 00:09:42;;;;;;;1.27;1.20;;;24.20;53.60;;;;;;5024638;28;20049;-51
2022/08/03 00:12:09;;;;;;;1.55;1.45;;;24.10;53.80;;;;;;5031535;28;20088;-47
2022/08/03 00:14:42;;;;;;;2.22;1.20;;;24.10;53.70;;;;;;5016886;28;20034;-51
2022/08/03 00:17:12;;;;;;;2.05;1.30;;;24.00;53.60;;;;;;5023230;28;20096;-49
2022/08/03 00:19:41;;;;;;;3.85;1.67;;;24.00;53.70;;;;;;5033026;28;20444;-49
2022/08/03 00:22:08;;;;;;;2.63;1.55;;;24.00;53.80;;;;;;5029370;28;20440;-47
2022/08/03 00:24:35;;;;;;;2.08;1.40;;;24.00;53.80;;;;;;5025030;28;20367;-51
2022/08/03 00:27:07;;;;;;;3.40;1.65;;;23.90;53.90;;;;;;5021980;28;20111;-51
2022/08/03 00:29:33;;;;;;;1.77;1.48;;;23.90;54.00;;;;;;5014639;28;20053;-49
2022/08/03 00:32:29;;;;;;;1.73;1.63;;;23.90;54.10;;;;;;5032238;28;20047;-52
2022/08/03 00:34:59;;;;;;;2.13;1.30;;;23.80;54.30;;;;;;5024296;28;20103;-48
2022/08/03 00:37:34;;;;;;;3.45;1.42;;;23.80;54.20;;;;;;5023427;28;20038;-52
2022/08/03 00:40:11;;;;;;;1.65;1.27;;;23.80;54.30;;;;;;5032998;28;20128;-52
2022/08/03 00:43:01;;;;;;;2.72;1.48;;;23.80;54.30;;;;;;5027370;28;20034;-49
2022/08/03 00:45:39;;;;;;;3.03;1.52;;;23.80;55.00;;;;;;5000053;28;20404;-52
2022/08/03 00:48:13;;;;;;;2.55;1.58;;;23.80;54.60;;;;;;5030021;28;20045;-51
2022/08/03 00:50:59;;;;;;;3.60;1.45;;;23.70;54.40;;;;;;5024056;28;20041;-51
2022/08/03 00:53:26;;;;;;;1.83;1.20;;;23.70;54.50;;;;;;5022147;28;20104;-52
2022/08/03 00:56:01;;;;;;;4.20;1.30;;;23.70;54.60;;;;;;5029168;28;20107;-50
2022/08/03 00:58:32;;;;;;;1.38;1.27;;;23.60;54.60;;;;;;5026317;28;20107;-52
2022/08/03 01:01:03;;;;;;;3.17;1.58;;;23.70;54.70;;;;;;5020479;28;20037;-52
2022/08/03 01:03:30;;;;;;;2.13;1.58;;;23.60;54.70;;;;;;5020470;28;20052;-49
2022/08/03 01:06:07;;;;;;;2.90;1.33;;;23.50;55.40;;;;;;5016730;28;20046;-52
2022/08/03 01:08:42;;;;;;;1.73;1.40;;;23.50;55.30;;;;;;5011879;28;20065;-52
2022/08/03 01:11:17;;;;;;;1.30;1.13;;;23.50;55.00;;;;;;5023258;28;20052;-49
2022/08/03 01:14:10;;;;;;;2.50;1.40;;;23.50;55.40;;;;;;5023486;28;20069;-52
2022/08/03 01:17:09;;;;;;;1.52;1.42;;;23.40;55.50;;;;;;5014032;28;20046;-49
2022/08/03 01:19:48;;;;;;;2.83;1.50;;;23.40;55.40;;;;;;5023834;28;20517;-51
2022/08/03 01:22:40;;;;;;;1.38;1.27;;;23.40;55.50;;;;;;5015798;28;20506;-51
2022/08/03 01:25:43;;;;;;;2.35;1.40;;;23.30;55.40;;;;;;5005627;28;20099;-51
2022/08/03 01:28:36;;;;;;;1.63;1.20;;;23.30;55.50;;;;;;5025917;28;20465;-48
2022/08/03 01:31:10;;;;;;;1.55;1.00;;;23.30;55.20;;;;;;5003821;28;20038;-49
2022/08/03 01:33:45;;;;;;;1.67;1.58;;;23.20;55.50;;;;;;5025949;28;20059;-49
2022/08/03 01:36:16;;;;;;;2.53;1.40;;;23.20;55.70;;;;;;5032333;28;20441;-51
2022/08/03 01:39:00;;;;;;;2.55;1.50;;;23.20;55.50;;;;;;5025410;28;20045;-52
2022/08/03 01:41:46;;;;;;;2.63;1.48;;;23.10;55.90;;;;;;5014515;28;20034;-48
2022/08/03 01:44:15;;;;;;;1.30;1.20;;;23.10;56.00;;;;;;5030080;28;20047;-50
2022/08/03 01:46:59;;;;;;;1.90;1.55;;;23.10;55.60;;;;;;5031489;28;20092;-51
2022/08/03 01:49:37;;;;;;;1.55;1.38;;;23.10;55.60;;;;;;5020476;28;20064;-52
2022/08/03 01:52:07;;;;;;;2.13;1.27;;;23.00;56.10;;;;;;5020230;28;20042;-51
2022/08/03 01:54:46;;;;;;;1.90;1.67;;;22.90;55.80;;;;;;5030901;28;20057;-48
2022/08/03 01:57:17;;;;;;;2.00;1.45;;;22.90;56.10;;;;;;5025690;28;20039;-48
2022/08/03 01:59:51;;;;;;;4.15;1.83;;;22.90;55.70;;;;;;5023675;28;20038;-50
2022/08/03 02:02:21;;;;;;;1.83;1.55;;;22.90;55.80;;;;;;4989208;28;20442;-52
2022/08/03 02:05:02;;;;;;;2.38;1.58;;;22.90;56.20;;;;;;5003620;28;20049;-52
2022/08/03 02:07:33;;;;;;;3.47;2.22;;;22.80;55.80;;;;;;4991008;28;20042;-50
2022/08/03 02:10:03;;;;;;;0.95;0.95;;;22.80;56.00;;;;;;5000041;28;20099;-47
2022/08/03 02:12:33;;;;;;;1.85;1.50;;;22.70;56.10;;;;;;5021143;28;20037;-52
2022/08/03 02:15:01;;;;;;;1.50;1.40;;;22.70;56.10;;;;;;5022895;28;20045;-47
2022/08/03 02:17:28;;;;;;;2.25;1.40;;;22.70;56.10;;;;;;5018544;28;20045;-48
2022/08/03 02:20:07;;;;;;;1.80;1.15;;;22.60;56.20;;;;;;5020991;28;20034;-48
2022/08/03 02:22:38;;;;;;;2.25;1.45;;;22.60;56.10;;;;;;5030479;28;20042;-48
2022/08/03 02:25:08;;;;;;;2.35;1.30;;;22.60;56.30;;;;;;5027961;28;20049;-52
2022/08/03 02:27:40;;;;;;;2.60;1.50;;;22.60;56.40;;;;;;5024988;28;20044;-51
2022/08/03 02:30:13;;;;;;;1.40;1.30;;;22.50;56.40;;;;;;5022531;28;20501;-51
2022/08/03 02:32:48;;;;;;;1.35;1.20;;;22.50;56.70;;;;;;5027407;28;20044;-51
2022/08/03 02:35:17;;;;;;;3.63;2.33;;;22.50;56.80;;;;;;5015297;28;20072;-48
2022/08/03 02:37:49;;;;;;;1.33;1.25;;;22.50;56.60;;;;;;5017441;28;20037;-52
2022/08/03 02:40:19;;;;;;;2.17;1.35;;;22.40;56.70;;;;;;5022681;28;20480;-51
2022/08/03 02:42:50;;;;;;;1.53;1.43;;;22.40;56.70;;;;;;5029514;28;20045;-53
2022/08/03 02:45:19;;;;;;;2.25;1.50;;;22.40;56.70;;;;;;5023771;28;20095;-50
2022/08/03 02:47:54;;;;;;;1.77;1.63;;;22.40;56.80;;;;;;5021757;28;20034;-49
2022/08/03 02:50:30;;;;;;;2.30;1.65;;;22.40;56.90;;;;;;4990930;28;20125;-51
2022/08/03 02:52:58;;;;;;;2.20;1.30;;;22.30;57.10;;;;;;4994776;28;20498;-53
2022/08/03 02:55:28;;;;;;;2.72;1.20;;;22.30;56.90;;;;;;5026533;28;20060;-53
2022/08/03 02:57:58;;;;;;;1.65;1.50;;;22.30;56.90;;;;;;5004416;28;20473;-51
2022/08/03 03:00:30;;;;;;;3.03;1.48;;;22.20;56.90;;;;;;5026257;28;20489;-47
2022/08/03 03:03:00;;;;;;;2.42;1.83;;;22.20;56.90;;;;;;5014420;28;20076;-49
2022/08/03 03:05:35;;;;;;;2.05;1.83;;;22.20;57.10;;;;;;5001029;28;20410;-50
2022/08/03 03:08:22;;;;;;;3.67;1.48;;;22.20;57.30;;;;;;5009451;28;20117;-52
2022/08/03 03:10:58;;;;;;;2.20;1.55;;;22.10;57.00;;;;;;5016604;28;20038;-49
2022/08/03 03:13:27;;;;;;;2.63;1.45;;;22.10;57.20;;;;;;5000600;28;20041;-49
2022/08/03 03:16:03;;;;;;;3.42;2.13;;;22.10;57.40;;;;;;5015707;28;20046;-47
2022/08/03 03:18:32;;;;;;;2.17;1.33;;;22.10;57.70;;;;;;5008528;28;20096;-51
2022/08/03 03:21:08;;;;;;;1.67;1.50;;;22.00;57.50;;;;;;5009252;28;20041;-49
2022/08/03 03:23:40;;;;;;;1.88;1.40;;;22.00;57.60;;;;;;5009099;28;20045;-51
2022/08/03 03:26:07;;;;;;;1.55;1.45;;;22.00;57.60;;;;;;5010252;28;20042;-48
2022/08/03 03:28:36;;;;;;;1.33;1.23;;;22.00;57.50;;;;;;5009799;28;20465;-47
2022/08/03 03:31:05;;;;;;;2.17;1.65;;;21.90;57.60;;;;;;4994200;28;20042;-50
2022/08/03 03:33:35;;;;;;;2.05;1.38;;;21.90;57.80;;;;;;5013605;28;20038;-48
2022/08/03 03:36:03;;;;;;;1.85;1.63;;;22.00;58.00;;;;;;5018517;28;20566;-48
2022/08/03 03:38:31;;;;;;;2.17;1.70;;;21.90;57.80;;;;;;5009378;28;20145;-50
2022/08/03 03:41:02;;;;;;;1.88;1.67;;;21.90;57.90;;;;;;5020711;28;20566;-49
2022/08/03 03:43:36;;;;;;;4.38;1.77;;;21.90;57.80;;;;;;5015288;28;20120;-52
2022/08/03 03:46:03;;;;;;;4.68;1.67;;;21.80;57.80;;;;;;5010616;28;20038;-50
2022/08/03 03:48:32;;;;;;;3.17;1.70;;;21.80;58.00;;;;;;5014701;28;20100;-50
2022/08/03 03:51:02;;;;;;;2.28;1.90;;;21.80;58.00;;;;;;5013360;28;20072;-50
2022/08/03 03:53:30;;;;;;;3.88;2.10;;;21.80;58.20;;;;;;5017453;28;20038;-48
2022/08/03 03:55:57;;;;;;;2.63;1.60;;;21.80;58.20;;;;;;5027727;28;20682;-51
2022/08/03 03:58:30;;;;;;;1.88;1.52;;;21.70;58.20;;;;;;5016590;28;20491;-47
2022/08/03 04:00:59;;;;;;;1.60;1.50;;;21.70;58.30;;;;;;4990687;28;20077;-51
2022/08/03 04:03:28;;;;;;;2.53;1.67;;;21.70;58.30;;;;;;4990921;28;20053;-52
2022/08/03 04:11:32;;;;;;;2.95;1.55;;;21.70;58.30;;;;;;5015665;28;20054;-48
2022/08/03 04:14:09;;;;;;;1.60;1.33;;;21.60;58.50;;;;;;5010410;28;20049;-50
2022/08/03 04:16:43;;;;;;;4.03;1.70;;;21.70;58.70;;;;;;4992219;28;20092;-54
2022/08/03 04:19:29;;;;;;;2.08;1.73;;;21.70;59.00;;;;;;5024829;28;20046;-51
2022/08/03 04:22:06;;;;;;;2.28;1.60;;;21.60;59.00;;;;;;5018809;28;20402;-50
2022/08/03 04:24:55;;;;;;;2.22;1.45;;;21.60;59.00;;;;;;5019334;28;20398;-47
2022/08/03 04:27:26;;;;;;;2.72;1.85;;;21.70;59.50;;;;;;5009702;28;20440;-52
2022/08/03 04:29:56;;;;;;;3.15;1.70;;;21.70;59.20;;;;;;5002639;28;20485;-48
2022/08/03 04:32:27;;;;;;;2.80;1.58;;;21.60;59.20;;;;;;5024848;28;20037;-50
2022/08/03 04:34:56;;;;;;;2.20;1.83;;;21.60;59.30;;;;;;5031206;28;20038;-48
2022/08/03 04:37:38;;;;;;;2.38;1.73;;;21.60;59.40;;;;;;5011446;28;20137;-51
2022/08/03 04:40:12;;;;;;;2.10;1.85;;;21.60;60.00;;;;;;5019941;28;20099;-48
2022/08/03 04:42:56;;;;;;;2.05;1.85;;;21.60;59.50;;;;;;5020777;28;20041;-50
2022/08/03 04:45:23;;;;;;;;;;;21.60;59.60;;;;;;5011896;28;20049;-52
2022/08/03 04:47:51;;;;;;;1.88;1.73;;;21.70;58.90;;;;;;5018497;28;19929;-50
2022/08/03 04:50:20;;;;;;;2.97;1.58;;;21.70;59.30;;;;;;5011305;28;20045;-49
2022/08/03 04:53:05;;;;;;;;;;;21.70;59.60;;;;;;5011633;28;20572;-50
2022/08/03 04:55:33;;;;;;;2.85;2.30;;;21.70;58.90;;;;;;5011409;28;20265;-51
2022/08/03 04:58:01;;;;;;;4.72;1.90;;;21.70;59.20;;;;;;5009587;28;20045;-51
2022/08/03 05:00:29;;;;;;;3.33;1.60;;;21.70;59.70;;;;;;5009156;28;20199;-52
2022/08/03 05:02:56;;;;;;;2.55;1.75;;;21.70;59.90;;;;;;5009673;28;20099;-51
2022/08/03 05:05:22;;;;;;;3.05;2.03;;;21.70;60.20;;;;;;5013474;28;20119;-50
2022/08/03 05:07:49;;;;;;;2.08;1.83;;;21.70;60.50;;;;;;5019023;28;20041;-50
2022/08/03 05:10:17;;;;;;;2.85;1.88;;;21.80;60.80;;;;;;5009731;28;20502;-51
2022/08/03 05:12:46;;;;;;;3.63;1.80;;;21.80;61.00;;;;;;5011919;28;20041;-50
2022/08/03 05:15:14;;;;;;;3.17;2.13;;;21.80;61.20;;;;;;5002489;28;20049;-54
2022/08/03 05:17:41;;;;;;;3.30;1.85;;;21.80;61.30;;;;;;5022455;28;20037;-49
2022/08/03 05:20:09;;;;;;;4.07;1.88;;;21.90;61.30;;;;;;5015372;28;20069;-48
2022/08/03 05:22:36;;;;;;;4.88;2.08;;;21.90;61.60;;;;;;5019577;28;20050;-52
2022/08/03 05:25:03;;;;;;;3.33;2.13;;;21.90;61.90;;;;;;4998920;28;20774;-51
2022/08/03 05:27:29;;;;;;;3.58;2.10;;;22.00;62.10;;;;;;5022088;28;20095;-49
2022/08/03 05:29:56;;;;;;;4.82;2.08;;;22.00;62.20;;;;;;5030781;28;20053;-51
2022/08/03 05:32:43;;;;;;;4.78;2.90;;;22.10;62.40;;;;;;5021638;28;20498;-48
2022/08/03 05:35:11;;;;;;;5.38;2.00;;;22.20;62.40;;;;;;5018540;28;20048;-47
2022/08/03 05:37:57;;;;;;;3.13;2.03;;;22.20;62.40;;;;;;5027419;28;20038;-48
2022/08/03 05:40:24;;;;;;;4.68;2.22;;;22.30;62.30;;;;;;5027244;28;20116;-49
2022/08/03 05:42:52;;;;;;;3.70;1.92;;;22.40;62.60;;;;;;5018173;28;20049;-50
2022/08/03 05:45:19;;;;;;;3.72;2.45;;;22.40;62.70;;;;;;5013800;28;20045;-51
2022/08/03 05:47:51;;;;;;;3.47;2.50;;;22.50;62.80;;;;;;5026664;28;20068;-50
2022/08/03 05:50:18;;;;;;;2.25;2.00;;;22.60;62.80;;;;;;5019956;28;20053;-51
2022/08/03 05:52:45;;;;;;;4.13;2.45;;;22.60;62.50;;;;;;5010667;28;20042;-51
2022/08/03 05:55:12;;;;;;;2.88;2.60;;;22.60;62.60;;;;;;5018343;28;20050;-54
2022/08/03 05:57:40;;;;;;;2.38;2.15;;;22.70;62.60;;;;;;5014082;28;20057;-52
2022/08/03 06:00:10;;;;;;;3.28;2.97;;;22.80;62.40;;;;;;5016069;28;20050;-51
2022/08/03 06:02:38;;;;;;;2.42;2.13;;;22.80;62.20;;;;;;5016622;28;20084;-50
2022/08/03 06:05:06;;;;;;;3.92;2.80;;;22.90;61.80;;;;;;5019915;28;20045;-51
2022/08/03 06:07:32;;;;;;;3.05;2.20;;;22.90;61.90;;;;;;5014970;28;20050;-49
2022/08/03 06:10:01;;;;;;;2.83;2.58;;;23.00;61.90;;;;;;5014073;28;20037;-49
2022/08/03 06:12:49;;;;;;;2.30;2.00;;;23.10;61.60;;;;;;5021897;28;20064;-52
2022/08/03 06:15:17;;;;;;;3.50;2.30;;;23.20;61.40;;;;;;5021484;28;20041;-48
2022/08/03 06:17:49;;;;;;;3.40;2.30;;;23.20;61.40;;;;;;5031387;28;20049;-52
2022/08/03 06:20:17;;;;;;;2.53;2.17;;;23.30;61.10;;;;;;5013206;28;20107;-51
2022/08/03 06:22:48;;;;;;;2.28;1.98;;;23.30;61.00;;;;;;5006485;28;20046;-51
2022/08/03 06:25:18;;;;;;;;;;;23.40;61.20;;;;;;5017226;28;20046;-53
2022/08/03 06:27:47;;;;;;;6.90;2.00;;;23.60;60.60;;;;;;5010572;28;19928;-47
2022/08/03 06:30:14;;;;;;;4.35;2.85;;;23.60;60.10;;;;;;5012342;28;20050;-51
2022/08/03 06:32:46;;;;;;;3.28;1.77;;;23.60;60.10;;;;;;5015772;28;20096;-49
2022/08/03 06:35:18;;;;;;;2.90;1.73;;;23.70;60.00;;;;;;5017343;28;20073;-52
2022/08/03 06:37:50;;;;;;;2.75;1.70;;;23.80;59.70;;;;;;5010168;28;20281;-51
2022/08/03 06:40:21;;;;;;;4.97;1.90;;;23.90;59.70;;;;;;5016064;28;20080;-49
2022/08/03 06:42:50;;;;;;;2.75;1.92;;;24.00;59.50;;;;;;5005338;28;20080;-47
2022/08/03 06:45:17;;;;;;;4.40;2.15;;;24.10;59.40;;;;;;5017846;28;20038;-54
2022/08/03 06:47:44;;;;;;;4.43;1.98;;;24.20;59.60;;;;;;5013448;28;20034;-49
2022/08/03 06:50:10;;;;;;;5.35;1.90;;;24.30;59.10;;;;;;5012228;28;20104;-50
2022/08/03 06:52:44;;;;;;;2.45;1.67;;;24.40;59.00;;;;;;5026921;28;20046;-49
2022/08/03 06:55:11;;;;;;;2.45;1.98;;;24.50;58.60;;;;;;5010745;28;20790;-50
2022/08/03 06:57:37;;;;;;;2.38;1.48;;;24.60;58.50;;;;;;4998032;28;20107;-53
2022/08/03 07:00:05;;;;;;;2.50;1.45;;;24.60;57.60;;;;;;5011035;28;20402;-49
2022/08/03 07:02:38;;;;;;;1.48;1.15;;;24.70;57.50;;;;;;5013816;28;20081;-50
2022/08/03 07:05:08;;;;;;;3.13;1.30;;;24.80;57.30;;;;;;5009097;28;20076;-53
2022/08/03 07:07:35;;;;;;;3.03;1.52;;;24.90;56.60;;;;;;5018591;28;20044;-51
2022/08/03 07:10:03;;;;;;;3.63;1.83;;;24.90;56.50;;;;;;5019730;28;20046;-51
2022/08/03 07:12:30;;;;;;;5.00;1.50;;;25.00;56.20;;;;;;5011655;28;20042;-51
2022/08/03 07:14:58;;;;;;;1.40;0.90;;;25.10;56.00;;;;;;5009164;28;20686;-51
2022/08/03 07:17:30;;;;;;;3.03;1.10;;;25.10;55.70;;;;;;5017148;28;20037;-50
2022/08/03 07:19:58;;;;;;;2.90;1.55;;;25.20;55.70;;;;;;5018016;28;20038;-52
2022/08/03 07:22:25;;;;;;;3.28;1.13;;;25.30;55.60;;;;;;5014994;28;20104;-50
2022/08/03 07:24:52;;;;;;;3.30;1.05;;;25.30;55.40;;;;;;5013770;28;20049;-53
2022/08/03 07:27:19;;;;;;;1.90;0.88;;;25.40;54.80;;;;;;5014139;28;20049;-48
2022/08/03 07:29:45;;;;;;;2.95;1.17;;;25.50;54.90;;;;;;5014013;28;20046;-50
2022/08/03 07:32:12;;;;;;;6.53;1.85;;;25.70;54.60;;;;;;5010085;28;20104;-48
2022/08/03 07:34:41;;;;;;;1.35;0.90;;;25.60;54.50;;;;;;5012091;28;20034;-54
2022/08/03 07:37:08;;;;;;;3.53;1.58;;;25.70;54.20;;;;;;5004372;28;20198;-51
2022/08/03 07:39:35;;;;;;;3.72;0.93;;;25.70;54.10;;;;;;5018180;28;20103;-49
2022/08/03 07:42:02;;;;;;;3.17;1.17;;;25.80;53.80;;;;;;4993211;28;20129;-52
2022/08/03 07:44:28;;;;;;;2.15;1.17;;;25.80;53.80;;;;;;5020419;28;20515;-49
2022/08/03 07:46:56;;;;;;;1.95;1.38;;;25.90;53.50;;;;;;5017795;28;20084;-50
2022/08/03 07:49:23;;;;;;;1.27;0.93;;;26.00;53.40;;;;;;5029170;28;20052;-52
2022/08/03 07:52:46;;;;;;;2.78;1.10;;;26.10;53.20;;;;;;5019204;28;20058;-48
2022/08/03 07:54:37;;;;;;;2.38;0.90;;;26.10;52.70;;;;;;5021700;28;20041;-51
2022/08/03 07:57:03;;;;;;;2.38;1.08;;;26.20;52.60;;;;;;5019583;28;20069;-51
2022/08/03 07:59:30;;;;;;;5.28;1.30;;;26.20;52.60;;;;;;5029160;28;20037;-52
2022/08/03 08:02:17;;;;;;;1.25;0.82;;;26.30;52.60;;;;;;5021085;28;20117;-51
2022/08/03 08:04:44;;;;;;;3.50;1.10;;;26.40;52.50;;;;;;5018950;28;20513;-51
2022/08/03 08:07:11;;;;;;;3.42;1.23;;;26.40;52.50;;;;;;5024298;28;20041;-48
2022/08/03 08:09:38;;;;;;;2.45;1.15;;;26.50;52.30;;;;;;5007390;28;20111;-48
2022/08/03 08:12:06;;;;;;;3.72;0.73;;;26.60;52.40;;;;;;5017658;28;20049;-53
2022/08/03 08:14:41;;;;;;;2.08;1.00;;;26.60;52.10;;;;;;5015435;28;20044;-48
2022/08/03 08:17:08;;;;;;;2.30;1.05;;;26.70;52.00;;;;;;5012657;28;20502;-48
2022/08/03 08:19:34;;;;;;;3.33;1.20;;;26.70;51.80;;;;;;5013549;28;20049;-49
2022/08/03 08:22:09;;;;;;;2.90;1.00;;;26.90;51.80;;;;;;5015006;28;20116;-51
2022/08/03 08:24:39;;;;;;;1.45;0.90;;;26.90;51.60;;;;;;5025246;28;20048;-51
2022/08/03 08:27:10;;;;;;;2.33;1.10;;;26.90;51.50;;;;;;5012993;28;20049;-51
2022/08/03 08:29:40;;;;;;;2.17;1.13;;;27.00;51.50;;;;;;5044718;23;20061;-92
2022/08/03 08:32:26;;;;;;;2.72;1.50;;;27.10;51.50;;;;;;5031276;28;20125;-93
2022/08/03 08:34:54;;;;;;;2.42;1.30;;;27.20;51.40;;;;;;5019004;28;20037;-92
2022/08/03 08:37:23;;;;;;;2.28;1.30;;;27.30;51.50;;;;;;5036847;28;20502;-92
2022/08/03 08:39:59;;;;;;;2.42;1.15;;;27.30;51.20;;;;;;5046599;28;20033;-93
2022/08/03 08:42:26;;;;;;;1.90;1.15;;;27.60;51.30;;;;;;5039085;28;20069;-94
2022/08/03 08:44:54;;;;;;;1.88;1.27;;;27.40;51.10;;;;;;5038262;28;20046;-94
2022/08/03 08:47:58;;;;;;;4.32;1.30;;;27.50;51.20;;;;;;5039490;28;20045;-93
2022/08/03 08:50:38;;;;;;;3.05;1.45;;;27.50;50.70;;;;;;5034120;28;20037;-92
2022/08/03 08:53:13;;;;;;;2.70;1.13;;;27.60;50.90;;;;;;5021645;28;20046;-93
2022/08/03 08:56:21;;;;;;;2.92;1.10;;;27.60;50.50;;;;;;5047250;28;20047;-94
2022/08/03 08:59:06;;;;;;;5.68;1.52;;;27.70;50.10;;;;;;5055164;28;20044;-93
2022/08/03 09:01:46;;;;;;;2.75;1.17;;;27.70;50.40;;;;;;5055215;28;20045;-93
2022/08/03 09:04:38;;;;;;;1.85;1.25;;;27.80;50.20;;;;;;5055031;28;20493;-91
2022/08/03 09:07:19;;;;;;;4.85;1.30;;;28.00;49.40;;;;;;5035593;28;20056;-92
2022/08/03 09:10:40;;;;;;;4.13;1.33;;;28.00;49.50;;;;;;5036255;28;20049;-93
2022/08/03 09:13:14;;;;;;;2.40;0.93;;;28.20;49.60;;;;;;5019084;28;20041;-92
2022/08/03 09:16:18;;;;;;;3.00;0.93;;;28.20;49.70;;;;;;5021268;28;20437;-94
2022/08/03 09:19:11;;;;;;;3.45;0.95;;;28.20;48.70;;;;;;5032134;28;20036;-93
2022/08/03 09:21:46;;;;;;;3.67;1.48;;;28.30;48.90;;;;;;5047534;28;20558;-94
2022/08/03 09:24:32;;;;;;;3.08;1.10;;;28.40;48.80;;;;;;5074090;28;20139;-93
2022/08/03 09:27:41;;;;;;;1.67;1.30;;;28.40;47.80;;;;;;5060048;28;20051;-93
2022/08/03 09:30:51;;;;;;;1.70;1.23;;;28.50;48.30;;;;;;5048238;28;20049;-93
2022/08/03 09:33:31;;;;;;;2.85;0.85;;;28.60;47.80;;;;;;5038394;28;20140;-93
2022/08/03 09:36:53;;;;;;;3.83;1.23;;;28.60;47.80;;;;;;5060269;28;20580;-93
2022/08/03 09:39:44;;;;;;;;;;;28.50;47.50;;;;;;5034899;28;20037;-93
2022/08/03 09:46:38;;;;;;;3.13;1.00;;;28.90;47.30;;;;;;5060191;28;20048;-94
2022/08/03 09:50:00;;;;;;;1.08;0.98;;;28.90;47.50;;;;;;5067383;28;20642;-92
2022/08/03 09:52:50;;;;;;;2.47;1.25;;;28.90;47.50;;;;;;5038764;28;20049;-93
2022/08/03 09:55:23;;;;;;;2.22;0.90;;;29.00;47.70;;;;;;5053524;28;20037;-93
2022/08/03 09:58:14;;;;;;;1.33;1.08;;;29.10;46.90;;;;;;5048162;28;20042;-93
2022/08/03 10:00:58;;;;;;;3.65;1.10;;;29.10;47.20;;;;;;5018386;28;20127;-94
2022/08/03 10:03:37;;;;;;;3.28;0.85;;;29.20;46.40;;;;;;5017764;28;20099;-94
2022/08/03 10:06:27;;;;;;;3.00;1.00;;;29.30;46.70;;;;;;5039912;28;20075;-92
2022/08/03 10:09:15;;;;;;;1.48;0.80;;;29.40;47.20;;;;;;5073827;28;20082;-94
2022/08/03 10:11:46;;;;;;;5.28;1.10;;;29.50;46.50;;;;;;5073645;28;20505;-94
2022/08/03 10:14:21;;;;;;;3.47;0.80;;;29.50;46.30;;;;;;5043289;28;20124;-94
2022/08/03 10:17:10;;;;;;;;;;;;;;;;;;;;;
2022/08/03 10:19:37;;;;;;;4.55;1.20;;;29.60;46.00;;;;;;5056376;28;20041;-93
2022/08/03 10:22:20;;;;;;;2.65;1.60;;;29.90;46.10;;;;;;5053684;28;20055;-93
2022/08/03 10:25:29;;;;;;;1.83;1.08;;;29.70;45.70;;;;;;5037427;28;20053;-93
2022/08/03 10:28:48;;;;;;;3.55;1.10;;;29.80;45.20;;;;;;5038672;28;20104;-93
2022/08/03 10:34:41;;;;;;;3.17;1.02;;;30.00;44.90;;;;;;5067074;28;20041;-92
2022/08/03 10:38:32;;;;;;;3.53;1.80;;;30.00;44.40;;;;;;5036208;28;20086;-95
2022/08/03 10:45:33;;;;;;;4.90;1.60;;;30.20;44.20;;;;;;4968524;28;20061;-94
2022/08/03 10:48:13;;;;;;;3.45;1.17;;;30.30;44.40;;;;;;4962049;28;20467;-93
2022/08/03 10:50:58;;;;;;;2.55;0.88;;;30.20;44.50;;;;;;5050822;28;20036;-94
2022/08/03 10:54:03;;;;;;;2.30;0.88;;;30.40;44.20;;;;;;5032623;28;20419;-94
2022/08/03 10:57:36;;;;;;;0.93;0.63;;;30.50;43.70;;;;;;5085113;22;20052;-50
2022/08/03 11:00:04;;;;;;;3.47;0.80;;;30.50;43.10;;;;;;5026619;28;20486;-52
2022/08/03 11:03:03;;;;;;;3.05;1.10;;;30.50;43.40;;;;;;5022902;28;20531;-52
2022/08/03 11:05:33;;;;;;;2.22;0.95;;;30.60;43.20;;;;;;5028997;28;20405;-50
2022/08/03 11:08:27;;;;;;;1.88;1.25;;;30.70;43.00;;;;;;5027575;28;20049;-48
2022/08/03 11:11:00;;;;;;;3.20;0.73;;;30.70;42.80;;;;;;5026027;28;20045;-56
2022/08/03 11:13:32;;;;;;;3.28;0.85;;;30.80;43.10;;;;;;5027178;28;20498;-52
2022/08/03 11:16:01;;;;;;;2.85;1.25;;;30.80;42.30;;;;;;5027982;28;20095;-48
2022/08/03 11:18:32;;;;;;;3.70;1.15;;;30.90;42.30;;;;;;5023655;28;20041;-52
2022/08/03 11:20:59;;;;;;;6.40;1.08;;;31.00;41.70;;;;;;5021867;28;20067;-52
2022/08/03 11:23:46;;;;;;;1.08;0.90;;;31.10;41.50;;;;;;5026438;28;20052;-48
2022/08/03 11:26:32;;;;;;;2.17;1.10;;;31.20;41.20;;;;;;5027313;28;20456;-49
2022/08/03 11:29:28;;;;;;;4.07;1.08;;;31.20;41.20;;;;;;5025315;28;20091;-54
2022/08/03 11:31:55;;;;;;;1.55;0.82;;;31.30;41.70;;;;;;5027830;28;20649;-52
2022/08/03 11:34:23;;;;;;;2.67;0.82;;;31.30;41.10;;;;;;5024918;28;20117;-51
2022/08/03 11:37:19;;;;;;;1.55;0.82;;;31.30;41.20;;;;;;5022959;28;20050;-55
2022/08/03 11:39:49;;;;;;;3.22;1.48;;;31.40;40.70;;;;;;5026464;28;20665;-51
2022/08/03 11:42:25;;;;;;;2.35;0.60;;;31.40;40.30;;;;;;5031954;28;20065;-56
2022/08/03 11:44:54;;;;;;;1.92;0.63;;;31.50;39.80;;;;;;5029156;28;20037;-53
2022/08/03 11:47:23;;;;;;;1.60;0.77;;;31.60;40.00;;;;;;5023379;28;21009;-49
2022/08/03 11:49:52;;;;;;;1.45;0.68;;;31.60;40.00;;;;;;5026830;28;20843;-52
2022/08/03 11:52:19;;;;;;;3.05;0.70;;;31.60;39.80;;;;;;5033875;28;20080;-50
2022/08/03 11:54:54;;;;;;;0.50;0.50;;;31.70;39.90;;;;;;5033441;28;20041;-48
2022/08/03 11:57:34;;;;;;;1.92;0.50;;;31.80;38.00;;;;;;5027345;28;20067;-53
2022/08/03 12:00:20;;;;;;;1.08;0.70;;;31.90;36.80;;;;;;5024772;28;20064;-49
2022/08/03 12:02:54;;;;;;;1.85;0.50;;;32.00;37.40;;;;;;5031839;28;20045;-53
2022/08/03 12:05:32;;;;;;;2.78;0.40;;;32.00;36.80;;;;;;5026188;28;20505;-52
2022/08/03 12:07:59;;;;;;;2.03;0.55;;;32.10;36.30;;;;;;5030559;28;20045;-50
2022/08/03 12:10:32;;;;;;;2.25;0.50;;;32.20;36.60;;;;;;5033247;28;20053;-48
2022/08/03 12:13:00;;;;;;;1.95;0.38;;;32.20;36.30;;;;;;5032315;28;20153;-50
2022/08/03 12:15:34;;;;;;;2.33;0.50;;;32.30;35.90;;;;;;5028262;28;20049;-48
2022/08/03 12:18:02;;;;;;;0.93;0.68;;;32.30;35.60;;;;;;5030197;28;20044;-48
2022/08/03 12:20:31;;;;;;;1.05;0.50;;;32.40;36.40;;;;;;5030246;28;20072;-53
2022/08/03 12:23:05;;;;;;;1.58;0.60;;;32.50;36.50;;;;;;5030459;28;20033;-52
2022/08/03 12:25:33;;;;;;;1.95;0.40;;;32.60;35.30;;;;;;5031465;28;20061;-50
2022/08/03 12:28:18;;;;;;;1.67;0.40;;;32.70;35.50;;;;;;5014590;28;20046;-54
2022/08/03 12:31:08;;;;;;;2.72;0.80;;;32.80;35.20;;;;;;5033101;28;20045;-51
2022/08/03 12:33:58;;;;;;;1.58;0.50;;;32.90;35.30;;;;;;5032699;28;20050;-52
2022/08/03 12:36:26;;;;;;;1.02;0.30;;;32.90;35.40;;;;;;5026514;28;20037;-53
2022/08/03 12:38:58;;;;;;;2.72;0.57;;;33.00;35.70;;;;;;5029767;28;20414;-48
2022/08/03 12:41:32;;;;;;;;;;;33.00;35.80;;;;;;5031882;28;20038;-49
2022/08/03 12:44:04;;;;;;;1.00;0.20;;;33.10;35.10;;;;;;5009926;28;20416;-53
2022/08/03 12:46:39;;;;;;;0.60;0.30;;;33.20;35.50;;;;;;5031627;28;20497;-48
2022/08/03 12:49:15;;;;;;;1.27;0.50;;;33.30;34.90;;;;;;5031053;28;20128;-47
2022/08/03 12:51:42;;;;;;;2.10;0.45;;;33.30;35.20;;;;;;5030010;28;20095;-51
2022/08/03 12:54:16;;;;;;;2.60;0.75;;;33.40;35.50;;;;;;5021483;28;20048;-51
2022/08/03 12:57:06;;;;;;;2.05;0.40;;;33.40;35.40;;;;;;5029979;28;20044;-53
2022/08/03 12:59:35;;;;;;;2.28;0.50;;;33.50;35.60;;;;;;5030332;28;20075;-52
2022/08/03 13:02:19;;;;;;;1.00;0.30;;;33.60;34.90;;;;;;5029029;28;20044;-49
2022/08/03 13:04:50;;;;;;;1.63;0.45;;;33.80;34.60;;;;;;5026824;28;20072;-52
2022/08/03 13:07:17;;;;;;;1.08;0.40;;;33.90;34.90;;;;;;5031014;28;20045;-53
2022/08/03 13:09:47;;;;;;;0.93;0.32;;;33.90;34.90;;;;;;5031687;28;20099;-52
2022/08/03 13:12:20;;;;;;;0.82;0.30;;;34.20;35.00;;;;;;5029979;28;20111;-49
2022/08/03 13:14:55;;;;;;;2.38;0.43;;;34.40;34.60;;;;;;5031051;28;20080;-50
2022/08/03 13:17:22;;;;;;;2.38;0.50;;;34.60;34.30;;;;;;5022813;28;20041;-54
2022/08/03 13:19:50;;;;;;;1.67;0.57;;;34.70;34.00;;;;;;5029425;28;20041;-51
2022/08/03 13:22:20;;;;;;;3.83;0.93;;;34.80;34.00;;;;;;5030506;28;20498;-52
2022/08/03 13:24:49;;;;;;;4.07;0.70;;;35.00;33.80;;;;;;5019038;28;20038;-50
2022/08/03 13:27:16;;;;;;;0.70;0.50;;;35.10;33.80;;;;;;5028232;28;20033;-49
2022/08/03 13:30:03;;;;;;;1.75;0.50;;;35.20;33.90;;;;;;5029933;28;20037;-54
2022/08/03 13:32:31;;;;;;;1.17;0.40;;;35.30;34.20;;;;;;5027992;28;20041;-51
2022/08/03 13:34:58;;;;;;;1.35;0.50;;;35.40;34.20;;;;;;5031584;28;20505;-50
2022/08/03 13:37:26;;;;;;;2.72;0.50;;;35.60;34.20;;;;;;5030954;28;20038;-52
2022/08/03 13:39:53;;;;;;;2.40;0.60;;;35.90;34.20;;;;;;5028564;28;20037;-48
2022/08/03 13:42:30;;;;;;;2.47;0.50;;;36.40;34.20;;;;;;5030789;28;20076;-50
2022/08/03 13:44:57;;;;;;;1.65;0.40;;;37.10;33.40;;;;;;5014016;28;20049;-51
2022/08/03 13:47:24;;;;;;;1.85;0.57;;;37.70;33.30;;;;;;5028377;28;20521;-50
2022/08/03 13:49:52;;;;;;;2.40;0.40;;;38.50;33.50;;;;;;5021973;28;20048;-49